Latest Weather Observations for Fitzroy Crossing

IDW60801

Issued at 1:43 pm WST Wednesday 20 June 2018 (issued every 10 minutes, with the page automatically refreshed every 10 minutes)

About weather observations | Map of weather stations | Latest weather observations for WA | Other Formats
Station Details ID: 003093 Name: FITZROY CROSSING AERO Lat: -18.18 Lon: 125.56 Height: 114.5 m
Data from the previous 72 hours. | See also: Recent months at Fitzroy Crossing
Date/Time
WST
Temp
°C
App
Temp
°C
Dew
Point
°C
Rel
Hum
%
Delta-T
°C
Wind Press
QNH
hPa
Press
MSL
hPa
Rain since
9am
mm
Dir  Spd
km/h
Gust
km/h
Spd
kts
Gust
kts
20/01:30pm 29.4 23.0 -6.7 9 15.3 ESE 19 26 10 14 1016.6 1016.2 0.0
20/01:00pm 29.2 22.7 -5.5 10 15.0 ESE 20 30 11 16 1016.9 1016.5 0.0
20/12:30pm 28.6 22.3 -6.0 10 14.8 ESE 19 30 10 16 1017.2 1016.8 0.0
20/12:00pm 27.6 20.3 -6.7 10 14.3 SE 24 33 13 18 1017.6 1017.2 0.0
20/11:30am 27.6 21.0 -6.7 10 14.3 ESE 20 30 11 16 1018.1 1017.7 0.0
20/11:00am 26.6 19.7 -6.2 11 13.7 ESE 22 32 12 17 1018.7 1018.3 0.0
20/10:30am 26.2 19.8 -5.4 12 13.4 E 20 30 11 16 1019.3 1018.9 0.0
20/10:00am 25.5 19.0 -6.0 12 13.0 ESE 20 30 11 16 1020.0 1019.6 0.0
20/09:30am 23.9 16.6 -6.2 13 12.3 ESE 24 32 13 17 1020.5 1020.1 0.0
20/09:00am 23.0 16.5 -5.9 14 11.7 SE 20 30 11 16 1020.7 1020.3 0.0
20/08:30am 21.9 15.6 -5.9 15 11.2 SE 19 26 10 14 1020.9 1020.5 0.0
20/08:00am 19.8 15.8 -2.5 22 9.4 ESE 9 15 5 8 1020.6 1020.2 0.0
20/07:30am 17.7 14.2 -3.1 24 8.5 SE 6 9 3 5 1020.6 1020.2 0.0
20/07:00am 14.9 11.2 -2.5 30 7.0 SSE 7 11 4 6 1020.5 1020.1 0.0
20/06:30am 11.8 8.2 -2.0 38 5.4 S 7 9 4 5 1020.3 1019.9 0.0
20/06:00am 11.6 7.6 -2.2 38 5.4 S 9 11 5 6 1020.1 1019.7 0.0
20/05:30am 12.0 7.6 -2.2 37 5.6 S 11 11 6 6 1019.7 1019.3 0.0
20/05:00am 12.1 8.4 -2.5 36 5.7 S 7 7 4 4 1019.6 1019.2 0.0
20/04:30am 12.6 8.5 -2.8 34 6.0 SSE 9 11 5 6 1019.5 1019.1 0.0
20/04:00am 14.2 9.7 -3.1 30 6.8 SE 11 13 6 7 1019.4 1019.0 0.0
20/03:30am 13.9 9.6 -1.7 34 6.3 SSE 11 13 6 7 1019.3 1018.9 0.0
20/03:00am 13.0 9.1 -1.3 37 5.8 S 9 9 5 5 1019.3 1018.9 0.0
20/02:30am 13.0 10.2 -0.6 39 5.6 S 4 7 2 4 1019.4 1019.0 0.0
20/02:00am 13.1 10.5 -1.6 36 5.9 SSE 2 6 1 3 1019.4 1019.0 0.0
20/01:30am 14.6 10.7 -1.5 33 6.6 S 9 11 5 6 1019.3 1018.9 0.0
20/01:00am 15.2 10.9 -1.8 31 6.9 S 11 13 6 7 1019.4 1019.0 0.0
20/12:30am 15.3 11.8 -1.7 31 7.0 S 7 9 4 5 1019.5 1019.1 0.0
20/12:00am 15.9 12.4 -2.6 28 7.5 SSE 6 9 3 5 1019.3 1018.9 0.0
 
Date/Time
WST
Temp
°C
App
Temp
°C
Dew
Point
°C
Rel
Hum
%
Delta-T
°C
Wind Press
QNH
hPa
Press
MSL
hPa
Rain since
9am
mm
Dir  Spd
km/h
Gust
km/h
Spd
kts
Gust
kts
19/11:30pm 18.2 14.1 -2.7 24 8.6 SE 9 11 5 6 1019.1 1018.7 0.0
19/11:00pm 19.7 15.3 -2.6 22 9.3 SSE 11 15 6 8 1018.9 1018.5 0.0
19/10:30pm 20.4 15.6 -2.6 21 9.7 SE 13 17 7 9 1019.0 1018.6 0.0
19/10:00pm 20.9 16.1 -2.2 21 9.9 SE 13 17 7 9 1019.0 1018.6 0.0
19/09:30pm 21.5 16.1 -1.7 21 10.1 SSE 17 20 9 11 1019.0 1018.6 0.0
19/09:00pm 21.5 16.6 -0.5 23 9.8 SSE 15 22 8 12 1018.8 1018.4 0.0
19/08:30pm 21.1 17.0 -0.2 24 9.5 SSE 11 15 6 8 1018.6 1018.2 0.0
19/08:00pm 21.0 17.0 0.2 25 9.3 SSE 11 13 6 7 1018.4 1018.0 0.0
19/07:30pm 22.1 17.7 0.6 24 9.8 SSE 13 15 7 8 1018.0 1017.6 0.0
19/07:00pm 22.6 18.7 1.0 24 10.0 SSE 11 13 6 7 1017.7 1017.3 0.0
19/06:30pm 23.4 19.1 1.1 23 10.4 S 13 15 7 8 1017.6 1017.2 0.0
19/06:00pm 24.4 20.1 1.3 22 10.9 S 13 15 7 8 1017.4 1017.0 0.0
19/05:30pm 25.4 21.4 0.8 20 11.6 S 11 13 6 7 1017.2 1016.8 0.0
19/05:00pm 27.6 23.2 0.4 17 12.9 S 13 19 7 10 1016.9 1016.5 0.0
19/04:30pm 29.4 25.2 -0.9 14 14.3 S 11 15 6 8 1016.6 1016.2 0.0
19/04:00pm 29.9 26.1 -0.5 14 14.4 S 9 17 5 9 1016.3 1015.9 0.0
19/03:30pm 30.2 25.7 -0.2 14 14.6 SSW 13 19 7 10 1016.1 1015.7 0.0
19/03:00pm 30.2 25.6 -1.2 13 14.8 S 13 20 7 11 1016.1 1015.7 0.0
19/02:30pm 30.2 26.0 -1.2 13 14.8 SE 11 17 6 9 1016.1 1015.7 0.0
19/02:00pm 30.1 25.8 -1.3 13 14.7 SE 11 19 6 10 1016.1 1015.7 0.0
19/01:30pm 30.6 27.7 -0.9 13 14.9 SSW 4 11 2 6 1016.3 1015.9 0.0
19/01:00pm 30.4 27.3 -0.1 14 14.6 SE 6 13 3 7 1016.5 1016.1 0.0
19/12:30pm 29.6 25.8 -0.7 14 14.3 E 9 19 5 10 1016.8 1016.4 0.0
19/12:00pm 29.3 25.1 -0.9 14 14.2 E 11 20 6 11 1017.2 1016.8 0.0
19/11:30am 28.2 23.5 -1.8 14 13.8 ESE 13 19 7 10 1017.9 1017.5 0.0
19/11:00am 27.4 22.7 -1.5 15 13.2 ESE 13 20 7 11 1018.4 1018.0 0.0
19/10:30am 26.4 21.4 -1.4 16 12.7 E 15 26 8 14 1018.6 1018.2 0.0
19/10:00am 26.0 21.0 -0.9 17 12.3 E 15 20 8 11 1019.1 1018.7 0.0
19/09:30am 24.9 19.9 -1.0 18 11.7 E 15 20 8 11 1019.2 1018.8 0.0
19/09:00am 23.0 17.3 -0.5 21 10.6 E 19 22 10 12 1019.6 1019.2 0.0
19/08:30am 21.6 16.3 -0.4 23 9.8 E 17 26 9 14 1019.6 1019.2 0.0
19/08:00am 19.9 14.3 -0.1 26 8.8 E 19 30 10 16 1019.2 1018.8 0.0
19/07:30am 16.9 12.9 0.5 33 7.2 E 11 15 6 8 1019.3 1018.9 0.0
19/07:00am 14.2 10.8 -0.6 36 6.1 ESE 7 11 4 6 1019.2 1018.8 0.0
19/06:30am 12.3 7.8 -0.6 41 5.3 E 13 15 7 8 1018.7 1018.3 0.0
19/06:00am 11.1 7.3 -0.4 45 4.6 SE 9 11 5 6 1018.8 1018.4 0.0
19/05:30am 11.0 7.7 -0.2 46 4.6 ESE 7 9 4 5 1018.4 1018.0 0.0
19/05:00am 11.0 7.6 -0.5 45 4.6 SE 7 9 4 5 1018.2 1017.8 0.0
19/04:30am 12.0 8.2 -0.8 41 5.2 ESE 9 11 5 6 1017.9 1017.5 0.0
19/04:00am 12.4 8.3 -0.5 41 5.3 SE 11 13 6 7 1018.0 1017.6 0.0
19/03:30am 12.6 8.9 0.0 42 5.2 SE 9 11 5 6 1017.8 1017.4 0.0
19/03:00am 12.7 9.1 0.5 43 5.1 SE 9 11 5 6 1017.7 1017.3 0.0
19/02:30am 12.4 8.9 1.1 46 4.8 ESE 9 11 5 6 1017.7 1017.3 0.0
19/02:00am 12.3 9.2 1.6 48 4.6 SE 7 9 4 5 1017.8 1017.4 0.0
19/01:30am 12.4 10.4 0.2 43 5.1 CALM 0 0 0 0 1017.8 1017.4 0.0
19/01:00am 12.3 10.4 0.4 44 5.0 CALM 0 0 0 0 1017.8 1017.4 0.0
19/12:30am 12.9 11.1 1.0 44 5.1 CALM 0 0 0 0 1017.9 1017.5 0.0
19/12:00am 12.5 10.6 0.6 44 5.0 CALM 0 6 0 3 1017.5 1017.1 0.0
 
Date/Time
WST
Temp
°C
App
Temp
°C
Dew
Point
°C
Rel
Hum
%
Delta-T
°C
Wind Press
QNH
hPa
Press
MSL
hPa
Rain since
9am
mm
Dir  Spd
km/h
Gust
km/h
Spd
kts
Gust
kts
18/11:30pm 14.8 11.8 0.6 38 6.1 ESE 6 7 3 4 1017.5 1017.1 0.0
18/11:00pm 15.5 11.9 0.5 36 6.5 S 9 11 5 6 1017.7 1017.3 0.0
18/10:30pm 16.1 12.6 1.0 36 6.6 S 9 11 5 6 1018.0 1017.6 0.0
18/10:00pm 16.7 13.2 1.2 35 6.8 SSE 9 11 5 6 1017.9 1017.5 0.0
18/09:30pm 16.3 14.4 0.8 35 6.8 CALM 0 0 0 0 1017.7 1017.3 0.0
18/09:00pm 17.1 14.4 0.3 32 7.3 SE 4 6 2 3 1017.5 1017.1 0.0
18/08:30pm 18.6 15.0 0.7 30 8.0 SSE 9 11 5 6 1017.2 1016.8 0.0
18/08:00pm 19.3 15.7 0.8 29 8.3 SE 9 9 5 5 1017.1 1016.7 0.0
18/07:30pm 20.3 16.3 0.7 27 8.9 SE 11 13 6 7 1016.7 1016.3 0.0
18/07:00pm 20.9 16.9 0.7 26 9.2 SE 11 13 6 7 1016.3 1015.9 0.0
18/06:30pm 21.6 17.7 1.3 26 9.4 SE 11 13 6 7 1015.9 1015.5 0.0
18/06:00pm 22.3 18.8 1.3 25 9.7 SE 9 11 5 6 1015.5 1015.1 0.0
18/05:30pm 23.3 19.8 1.0 23 10.4 SE 9 9 5 5 1015.2 1014.8 0.0
18/05:00pm 25.9 22.3 0.5 19 11.9 ESE 9 13 5 7 1014.9 1014.5 0.0
18/04:30pm 27.7 23.3 0.5 17 13.0 E 13 17 7 9 1014.4 1013.9 0.0
18/04:00pm 28.5 23.6 -0.6 15 13.7 E 15 20 8 11 1014.3 1013.8 0.0
18/03:30pm 29.2 24.4 -0.1 15 14.0 E 15 22 8 12 1014.2 1013.7 0.0
18/03:00pm 29.4 24.6 0.1 15 14.0 E 15 24 8 13 1014.2 1013.7 0.0
18/02:30pm 29.5 24.2 -0.8 14 14.3 ENE 17 26 9 14 1014.3 1013.8 0.0
18/02:00pm 29.4 23.5 -0.9 14 14.2 ENE 20 32 11 17 1014.7 1014.3 0.0
18/01:30pm 29.1 23.5 -0.1 15 13.9 E 19 28 10 15 1015.1 1014.7 0.0
18/01:00pm 28.1 22.2 -0.9 15 13.5 ENE 20 32 11 17 1015.3 1014.9 0.0
18/12:30pm 28.0 22.8 -0.1 16 13.3 ENE 17 32 9 17 1015.7 1015.3 0.0
18/12:00pm 27.5 21.3 -0.5 16 13.1 ENE 22 32 12 17 1016.4 1016.0 0.0
18/11:30am 27.0 21.2 -0.1 17 12.7 ENE 20 30 11 16 1017.2 1016.8 0.0
18/11:00am 26.1 19.6 0.0 18 12.2 E 24 33 13 18 1017.7 1017.3 0.0
18/10:30am 25.6 18.6 -0.5 18 12.0 ENE 26 35 14 19 1018.2 1017.8 0.0
18/10:00am 24.9 17.9 -0.3 19 11.6 ENE 26 35 14 19 1018.5 1018.1 0.0
18/09:30am 24.6 17.8 0.8 21 11.1 ENE 26 39 14 21 1018.9 1018.5 0.0
18/09:00am 22.7 17.0 0.5 23 10.2 ENE 20 32 11 17 1019.3 1018.9 -
18/08:30am 21.0 17.1 1.3 27 9.1 ENE 11 19 6 10 1019.8 1019.4 -
18/08:00am 18.9 14.7 1.4 31 7.9 E 13 17 7 9 1019.6 1019.2 -
18/07:30am 17.3 13.8 1.3 34 7.1 E 9 11 5 6 1019.5 1019.1 -
18/07:00am 15.2 13.5 1.7 40 5.9 CALM 0 0 0 0 1019.4 1019.0 -
18/06:30am 11.0 9.2 1.0 50 4.2 CALM 0 0 0 0 1019.2 1018.8 -
18/06:00am 11.5 8.5 0.6 47 4.5 ESE 6 6 3 3 1019.0 1018.6 -
18/05:30am 11.9 9.6 0.7 46 4.7 ESE 2 7 1 4 1018.6 1018.2 -
18/05:00am 11.5 8.5 0.6 47 4.5 ESE 6 6 3 3 1018.4 1018.0 -
18/04:30am 11.4 8.2 0.5 47 4.5 ESE 7 9 4 5 1018.5 1018.1 -
18/04:00am 11.8 8.7 0.3 45 4.8 E 6 7 3 4 1018.2 1017.8 -
18/03:30am 13.3 10.8 -1.1 37 5.9 E 2 6 1 3 1018.2 1017.8 -
18/03:00am 15.5 11.7 -0.7 33 6.8 ESE 9 11 5 6 1018.1 1017.7 0.0
18/02:30am 16.3 12.2 -0.4 32 7.1 ESE 11 15 6 8 1018.0 1017.6 -
18/02:00am 17.0 12.4 -0.7 30 7.5 ESE 13 17 7 9 1018.0 1017.6 -
18/01:30am 17.3 12.7 -0.9 29 7.7 ESE 13 17 7 9 1018.0 1017.6 -
18/01:00am 17.6 13.4 -1.1 28 7.9 ESE 11 17 6 9 1018.2 1017.8 -
18/12:30am 18.5 13.5 -1.3 26 8.5 ESE 15 19 8 10 1018.2 1017.8 -
18/12:00am 19.1 14.1 -1.4 25 8.8 ESE 15 20 8 11 1018.2 1017.8 -
 
Date/Time
WST
Temp
°C
App
Temp
°C
Dew
Point
°C
Rel
Hum
%
Delta-T
°C
Wind Press
QNH
hPa
Press
MSL
hPa
Rain since
9am
mm
Dir  Spd
km/h
Gust
km/h
Spd
kts
Gust
kts
17/11:30pm 19.7 14.3 -1.4 24 9.1 ESE 17 24 9 13 1018.2 1017.8 -
17/11:00pm 20.6 15.1 -1.8 22 9.6 ESE 17 24 9 13 1018.3 1017.9 -
17/10:30pm 21.1 15.3 -1.4 22 9.8 ESE 19 26 10 14 1018.4 1018.0 -
17/10:00pm 20.1 15.1 -1.1 24 9.2 ESE 15 19 8 10 1018.5 1018.1 -
17/09:30pm 19.5 14.7 0.0 27 8.6 ESE 15 19 8 10 1018.6 1018.2 -
17/09:00pm 18.3 14.2 -0.5 28 8.1 SE 11 13 6 7 1018.6 1018.2 -
17/08:30pm 18.7 14.6 -0.2 28 8.3 SE 11 13 6 7 1018.6 1018.2 -
17/08:00pm 19.2 15.1 -0.2 27 8.5 SE 11 13 6 7 1018.5 1018.1 -
17/07:30pm 19.8 16.1 -0.2 26 8.8 SE 9 11 5 6 1018.3 1017.9 -
17/07:00pm 20.9 16.7 -1.0 23 9.6 SE 11 13 6 7 1018.1 1017.7 -
17/06:30pm 21.7 17.9 -0.9 22 10.0 SE 9 11 5 6 1017.7 1017.3 -
17/06:00pm 23.3 19.0 -1.6 19 11.0 SE 11 15 6 8 1017.5 1017.1 0.0
17/05:30pm 24.5 20.1 -2.1 17 11.8 SE 11 15 6 8 1017.3 1016.9 0.0
17/05:00pm 26.7 22.0 -2.1 15 13.0 ESE 13 19 7 10 1017.0 1016.6 0.0
17/04:30pm 28.2 23.9 -1.8 14 13.8 ESE 11 17 6 9 1016.8 1016.4 0.0
17/04:00pm 28.9 23.3 -3.3 12 14.4 ESE 17 26 9 14 1016.6 1016.2 0.0
17/03:30pm 29.3 24.1 -3.0 12 14.6 ESE 15 22 8 12 1016.4 1016.0 0.0
17/03:00pm 29.8 23.9 -2.6 12 14.8 SE 19 26 10 14 1016.4 1016.0 0.0
17/02:30pm 30.0 25.2 -2.5 12 14.9 ESE 13 22 7 12 1016.4 1016.0 0.0
17/02:00pm 30.2 24.4 -1.2 13 14.8 E 19 30 10 16 1016.6 1016.2 0.0

Other Formats:

Comma delimited format used in spreadsheet applications
http://www.bom.gov.au/fwo/IDW60801/IDW60801.94206.axf

JavaScript Object Notation format (JSON) in row-major order
http://www.bom.gov.au/fwo/IDW60801/IDW60801.94206.json